createdAt,value
2023-02-09T00:02:43.001Z,10.32
2023-02-09T00:07:44.651Z,10.50
2023-02-09T00:13:05.126Z,11.30
2023-02-09T00:18:06.792Z,10.35
2023-02-09T00:23:08.601Z,11.57
2023-02-09T00:28:10.269Z,11.88
2023-02-09T00:33:11.905Z,14.90
2023-02-09T00:38:14.159Z,11.10
2023-02-09T00:43:15.991Z,11.15
2023-02-09T00:48:17.732Z,11.13
2023-02-09T00:53:21.706Z,10.52
2023-02-09T00:58:23.581Z,13.30
2023-02-09T01:03:25.619Z,12.55
2023-02-09T01:08:28.799Z,11.93
2023-02-09T01:13:30.438Z,11.85
2023-02-09T01:18:32.954Z,11.93
2023-02-09T01:23:36.863Z,13.50
2023-02-09T01:28:39.322Z,11.95
2023-02-09T01:33:41.226Z,10.77
2023-02-09T01:38:43.294Z,11.57
2023-02-09T01:43:54.807Z,12.85
2023-02-09T01:49:15.547Z,10.90
2023-02-09T01:54:23.367Z,10.20
2023-02-09T01:59:25.562Z,11.40
2023-02-09T02:04:27.559Z,11.10
2023-02-09T02:09:30.999Z,11.95
2023-02-09T02:14:36.216Z,12.57
2023-02-09T02:19:56.526Z,12.25
2023-02-09T02:25:37.160Z,12.13
2023-02-09T02:31:00.176Z,11.85
2023-02-09T02:36:12.284Z,10.82
2023-02-09T02:41:26.833Z,11.75
2023-02-09T02:46:43.478Z,10.80
2023-02-09T02:51:49.308Z,12.85
2023-02-09T02:57:00.538Z,12.20
2023-02-09T03:02:13.334Z,12.10
2023-02-09T03:07:17.755Z,11.65
2023-02-09T03:12:40.597Z,12.52
2023-02-09T03:18:08.266Z,13.55
2023-02-09T03:23:31.280Z,12.35
2023-02-09T03:28:37.614Z,12.23
2023-02-09T03:33:39.968Z,13.53
2023-02-09T03:38:41.636Z,12.38
2023-02-09T03:44:02.118Z,12.05
2023-02-09T03:49:03.812Z,12.07
2023-02-09T03:54:05.899Z,12.43
2023-02-09T03:59:07.826Z,12.07
2023-02-09T04:04:09.604Z,12.10
2023-02-09T04:09:11.588Z,12.00
2023-02-09T04:14:13.464Z,13.57
2023-02-09T04:19:17.903Z,12.23
2023-02-09T04:24:21.341Z,11.73
2023-02-09T04:29:23.030Z,12.43
2023-02-09T04:34:24.828Z,12.57
2023-02-09T04:39:26.595Z,13.68
2023-02-09T04:44:28.423Z,12.93
2023-02-09T04:49:30.106Z,13.50
2023-02-09T04:54:31.802Z,13.80
2023-02-09T04:59:39.041Z,14.02
2023-02-09T05:09:42.234Z,14.13
2023-02-09T05:14:43.884Z,15.52
2023-02-09T05:19:46.782Z,14.93
2023-02-09T05:24:48.460Z,16.15
2023-02-09T05:29:50.171Z,16.08
2023-02-09T05:34:51.861Z,17.23
2023-02-09T05:39:54.059Z,18.23
2023-02-09T05:44:55.694Z,18.70
2023-02-09T05:49:57.310Z,19.90
2023-02-09T05:54:58.989Z,19.92
2023-02-09T06:00:00.684Z,20.92
2023-02-09T06:05:02.337Z,20.77
2023-02-09T06:10:04.309Z,19.63
2023-02-09T06:15:06.677Z,19.33
2023-02-09T06:20:09.446Z,19.20
2023-02-09T06:25:11.114Z,20.50
2023-02-09T06:30:13.336Z,20.05
2023-02-09T06:35:15.261Z,19.33
2023-02-09T06:40:17.041Z,19.45
2023-02-09T06:45:18.879Z,21.25
2023-02-09T06:50:20.961Z,19.80
2023-02-09T06:55:22.813Z,20.20
2023-02-09T07:00:24.561Z,21.75
2023-02-09T07:05:26.995Z,23.20
2023-02-09T07:10:28.858Z,24.45
2023-02-09T07:15:30.605Z,23.77
2023-02-09T07:20:32.282Z,24.40
2023-02-09T07:25:34.524Z,22.90
2023-02-09T07:30:40.986Z,22.25
2023-02-09T07:35:42.972Z,23.65
2023-02-09T07:40:46.781Z,22.50
2023-02-09T07:45:48.772Z,22.70
2023-02-09T07:50:51.523Z,21.83
2023-02-09T07:55:53.239Z,24.00
2023-02-09T08:00:54.992Z,23.00
2023-02-09T08:06:20.884Z,24.13
2023-02-09T08:11:34.545Z,22.20
2023-02-09T08:16:36.821Z,23.67
2023-02-09T08:21:41.514Z,22.95
2023-02-09T08:26:44.197Z,23.67
2023-02-09T08:31:46.216Z,22.80
2023-02-09T08:36:47.990Z,21.65
2023-02-09T08:41:49.667Z,22.52
2023-02-09T08:46:51.719Z,22.10
2023-02-09T08:51:54.224Z,22.27
2023-02-09T08:56:55.882Z,23.48
2023-02-09T09:01:57.516Z,22.58
2023-02-09T09:06:59.225Z,22.48
2023-02-09T09:12:00.919Z,21.90
2023-02-09T09:17:02.591Z,22.88
2023-02-09T09:22:04.285Z,21.75
2023-02-09T09:27:07.441Z,20.23
2023-02-09T09:32:13.886Z,18.23
2023-02-09T09:37:15.679Z,17.23
2023-02-09T09:42:25.976Z,17.48
2023-02-09T09:47:36.546Z,16.42
2023-02-09T09:52:42.069Z,16.95
2023-02-09T09:57:44.989Z,16.63
2023-02-09T10:02:46.912Z,17.15
2023-02-09T10:08:10.807Z,17.05
2023-02-09T10:13:23.078Z,16.77
2023-02-09T10:18:25.814Z,16.45
2023-02-09T10:23:41.534Z,17.58
2023-02-09T10:28:52.793Z,17.73
2023-02-09T10:34:13.674Z,18.73
2023-02-09T10:39:18.508Z,16.75
2023-02-09T10:44:24.890Z,17.08
2023-02-09T10:49:29.130Z,18.33
2023-02-09T10:54:31.640Z,16.90
2023-02-09T10:59:36.177Z,15.57
2023-02-09T11:04:40.097Z,15.10
2023-02-09T11:09:47.630Z,16.27
2023-02-09T11:14:49.699Z,14.48
2023-02-09T11:20:13.834Z,15.55
2023-02-09T11:25:50.171Z,14.52
2023-02-09T11:31:39.401Z,13.38
2023-02-09T11:37:02.753Z,12.30
2023-02-09T11:42:34.400Z,11.85
2023-02-09T11:47:58.459Z,11.30
2023-02-09T11:53:05.090Z,9.55
2023-02-09T11:58:44.174Z,8.45
2023-02-09T12:04:26.024Z,8.90
2023-02-09T12:09:35.801Z,9.38
2023-02-09T12:14:59.181Z,12.32
2023-02-09T12:20:02.575Z,10.82
2023-02-09T12:25:17.556Z,9.52
2023-02-09T12:30:40.682Z,10.73
2023-02-09T12:35:43.931Z,10.65
2023-02-09T12:41:02.553Z,11.15
2023-02-09T12:46:20.172Z,11.57
2023-02-09T12:52:01.380Z,11.07
2023-02-09T12:57:15.046Z,10.85
2023-02-09T13:02:24.005Z,9.52
2023-02-09T13:07:56.192Z,8.77
2023-02-09T13:13:12.740Z,9.40
2023-02-09T13:18:24.029Z,9.35
2023-02-09T13:23:28.646Z,11.60
2023-02-09T13:28:30.352Z,12.48
2023-02-09T13:33:46.264Z,9.73
2023-02-09T13:38:48.685Z,11.15
2023-02-09T13:43:50.358Z,12.50
2023-02-09T13:48:51.998Z,12.18
2023-02-09T13:53:59.073Z,11.45
2023-02-09T13:59:01.417Z,11.55
2023-02-09T14:04:19.919Z,13.23
2023-02-09T14:09:46.602Z,12.70
2023-02-09T14:15:15.918Z,12.05
2023-02-09T14:20:24.611Z,11.95
2023-02-09T14:25:31.104Z,12.77
2023-02-09T14:30:36.384Z,13.50
2023-02-09T14:35:43.383Z,12.15
2023-02-09T14:40:45.228Z,13.70
2023-02-09T14:45:58.132Z,12.80
2023-02-09T14:51:16.193Z,13.30
2023-02-09T14:56:30.020Z,13.70
2023-02-09T15:01:32.124Z,13.13
2023-02-09T15:06:35.509Z,12.82
2023-02-09T15:11:56.105Z,13.10
2023-02-09T15:16:57.825Z,14.00
2023-02-09T15:22:07.471Z,14.75
2023-02-09T15:27:19.719Z,15.95
2023-02-09T15:32:23.472Z,15.98
2023-02-09T15:37:28.560Z,14.10
2023-02-09T15:42:48.869Z,15.05
2023-02-09T15:47:52.751Z,11.02
2023-02-09T15:52:57.352Z,10.82
2023-02-09T15:57:59.419Z,11.63
2023-02-09T16:03:01.700Z,10.30
2023-02-09T16:08:03.504Z,11.88
2023-02-09T16:13:06.456Z,12.25
2023-02-09T16:18:08.183Z,11.88
2023-02-09T16:23:20.249Z,13.38
2023-02-09T16:28:22.972Z,14.32
2023-02-09T16:33:25.898Z,13.20
2023-02-09T16:38:29.829Z,19.92
2023-02-09T16:43:31.430Z,18.85
2023-02-09T16:48:34.917Z,19.65
2023-02-09T16:53:48.309Z,18.25
2023-02-09T16:58:50.013Z,18.73
2023-02-09T17:03:56.607Z,17.33
2023-02-09T17:08:58.733Z,16.67
2023-02-09T17:14:00.449Z,16.25
2023-02-09T17:19:06.143Z,16.55
2023-02-09T17:24:17.666Z,17.20
2023-02-09T17:29:21.304Z,16.58
2023-02-09T17:34:28.385Z,15.43
2023-02-09T17:39:30.985Z,16.27
2023-02-09T17:44:45.600Z,17.45
2023-02-09T17:49:47.682Z,16.60
2023-02-09T17:54:50.882Z,18.10
2023-02-09T17:59:52.478Z,18.40
2023-02-09T18:04:54.252Z,18.67
2023-02-09T18:09:56.637Z,23.80
2023-02-09T18:14:59.145Z,21.05
2023-02-09T18:20:00.937Z,22.88
2023-02-09T18:25:02.807Z,21.98
2023-02-09T18:30:05.011Z,20.80
2023-02-09T18:35:07.094Z,38.95
2023-02-09T18:40:09.125Z,26.67
2023-02-09T18:45:12.135Z,29.05
2023-02-09T18:50:19.667Z,33.55
2023-02-09T18:55:24.406Z,30.58
2023-02-09T19:00:26.687Z,29.35
2023-02-09T19:05:32.674Z,30.90
2023-02-09T19:10:36.010Z,25.88
2023-02-09T19:15:39.671Z,24.67
2023-02-09T19:20:41.476Z,21.83
2023-02-09T19:25:43.164Z,27.20
2023-02-09T19:30:44.866Z,20.35
2023-02-09T19:35:46.764Z,22.27
2023-02-09T19:40:49.329Z,21.48
2023-02-09T19:45:59.134Z,23.98
2023-02-09T19:51:00.879Z,18.95
2023-02-09T19:56:02.679Z,19.30
2023-02-09T20:01:09.029Z,19.20
2023-02-09T20:06:13.642Z,19.07
2023-02-09T20:11:20.436Z,18.80
2023-02-09T20:16:25.013Z,21.17
2023-02-09T20:21:26.799Z,19.98
2023-02-09T20:26:29.797Z,20.58
2023-02-09T20:31:34.948Z,22.35
2023-02-09T20:36:39.590Z,25.35
2023-02-09T20:42:03.053Z,22.48
2023-02-09T20:47:04.808Z,21.05
2023-02-09T20:52:07.041Z,23.38
2023-02-09T20:57:09.007Z,21.08
2023-02-09T21:02:12.846Z,20.27
2023-02-09T21:07:14.588Z,20.55
2023-02-09T21:12:16.276Z,19.38
2023-02-09T21:17:19.666Z,18.83
2023-02-09T21:22:21.547Z,19.05
2023-02-09T21:27:26.070Z,19.15
2023-02-09T21:32:27.872Z,22.67
2023-02-09T21:37:32.689Z,20.90
2023-02-09T21:42:35.659Z,20.33
2023-02-09T21:47:39.474Z,20.77
2023-02-09T21:52:41.333Z,19.88
2023-02-09T21:57:43.453Z,20.15
2023-02-09T22:02:45.710Z,19.98
2023-02-09T22:07:48.409Z,20.30
2023-02-09T22:12:50.203Z,21.17
2023-02-09T22:17:51.875Z,21.70
2023-02-09T22:22:56.663Z,21.15
2023-02-09T22:27:58.365Z,20.33
2023-02-09T22:33:01.514Z,21.15
2023-02-09T22:38:03.257Z,20.77
2023-02-09T22:43:05.137Z,19.10
2023-02-09T22:48:06.915Z,19.42
2023-02-09T22:53:08.703Z,18.90
2023-02-09T22:58:10.415Z,17.27
2023-02-09T23:03:12.186Z,17.05
2023-02-09T23:08:13.823Z,17.10
2023-02-09T23:13:15.463Z,15.82
2023-02-09T23:18:17.414Z,16.48
2023-02-09T23:23:19.155Z,16.17
2023-02-09T23:28:20.968Z,15.88
2023-02-09T23:33:22.949Z,16.50
2023-02-09T23:38:24.740Z,15.27
2023-02-09T23:43:26.442Z,16.30
2023-02-09T23:48:28.232Z,16.20
2023-02-09T23:53:31.430Z,16.25
2023-02-09T23:58:38.073Z,16.48
